Buoy 46770

sailwx.info

Track history (hours):
 
Tides and Currents Weather Stations Pressure Air Temp Water Temp Dewpoint Dewpoint Depression Visibility Wind Speed Wind Dir Waves Ship Positions

Drifting buoy 46770

Last reported at 2017-Sep-26 19:00 UTC. Time now 2017-Sep-26 21:46 UTC.
Position N 22°59' W 137°19'.

Barometer 1017.5 mb
Water temperature 24.2 ° C

Date/timePositionNaut miles runAvg speedWind from/ knotsBaromVisibWave heightAir tempDewpointWater temp
2017-Sep-26 19:00N 22°59' W 137°19'1 0.6 1017.5 24.2
2017-Sep-26 18:00N 22°59' W 137°19'2 2.2 1017.5 24.2
2017-Sep-26 17:00N 22°59' W 137°16'0 0.0 1017.3 24.2
2017-Sep-26 16:00N 22°59' W 137°16'0 0.0 1016.8 24.1
2017-Sep-26 15:00N 22°59' W 137°16'1 1.1 1016.3 24.1
2017-Sep-26 14:00N 22°59' W 137°15'0 0.0 1016.1 24.1
2017-Sep-26 13:00N 22°59' W 137°15'1 1.3 1016.0 24.1
2017-Sep-26 12:00N 22°59' W 137°14'3 0.6 1016.1 24.1
2017-Sep-26 07:00N 22°58' W 137°11'1 1.1 1017.6 24.1
2017-Sep-26 06:00N 22°58' W 137°10'1 0.6 1017.3 24.1
2017-Sep-26 05:00N 22°58' W 137°09'1 1.1 1016.9 24.1
2017-Sep-26 04:00N 22°58' W 137°08'2 1.7 1016.4 24.1
2017-Sep-26 03:00N 22°58' W 137°06'0 0.0 1016.0 24.0
2017-Sep-26 02:00N 22°58' W 137°06'1 1.3 1015.8 24.0
2017-Sep-26 01:00N 22°59' W 137°05'0 0.0 1015.7 24.1
2017-Sep-26 00:00N 22°59' W 137°05'4 1.8 1015.7 24.1
2017-Sep-25 22:00N 23°00' W 137°01'1 0.2 1016.7 24.0
2017-Sep-25 19:00N 22°59' W 137°01'2 2.2 1017.9 23.9
2017-Sep-25 18:00N 22°59' W 136°59'0 0.0 1018.0 23.8
2017-Sep-25 17:00N 22°59' W 136°59'0 0.0 1017.7 23.8
2017-Sep-25 15:00N 22°59' W 136°59'2 1.7 1016.7 23.8
2017-Sep-25 14:00N 22°59' W 136°57'4 3.9 1016.5 23.8
2017-Sep-25 13:00N 22°59' W 136°53'3 2.5 1016.2 23.8
2017-Sep-25 12:00N 23°00' W 136°55'3 0.5 1016.5 23.8
2017-Sep-25 07:00N 22°59' W 136°53'1 1.1 1018.5 23.9
2017-Sep-25 06:00N 22°59' W 136°52'1 0.6 1018.3 23.9
2017-Sep-25 04:00N 22°59' W 136°50'2 1.7 1017.2 23.9
2017-Sep-25 03:00N 22°59' W 136°49'1 0.6 1016.6 23.9
2017-Sep-25 01:00N 22°59' W 136°47'0 0.0 1016.1 23.9
2017-Sep-25 00:00N 22°59' W 136°47'2 1.7 1016.2 23.9
2017-Sep-24 23:00N 22°59' W 136°46'3 3.4 1016.5 23.9
2017-Sep-24 22:00N 22°59' W 136°42'0 0.0 1017.0 23.9
2017-Sep-24 20:00N 22°59' W 136°42'1 1.3 1018.1 23.9
2017-Sep-24 19:00N 22°59' W 136°41'2 1.8 1018.3 23.8
2017-Sep-24 18:00N 22°59' W 136°39'1 0.6 1018.3 23.8
2017-Sep-24 17:00N 23°00' W 136°39'1 0.6 1018.0 23.8
2017-Sep-24 16:00N 23°00' W 136°38'2 1.8 1017.4 23.8
2017-Sep-24 15:00N 23°01' W 136°37'0 0.0 1017.1 23.8
2017-Sep-24 14:00N 23°01' W 136°37'0 0.0 1016.8 23.8
2017-Sep-24 13:00N 23°01' W 136°37'5 2.5 1016.6 23.8
2017-Sep-24 11:00N 23°00' W 136°31'1 0.3 1016.7 23.8
2017-Sep-24 07:00N 23°00' W 136°30'1 1.1 1018.0 23.9
2017-Sep-24 06:00N 23°00' W 136°29'1 1.3 1017.9 23.9
2017-Sep-24 05:00N 23°01' W 136°28'1 1.1 1017.5 23.9
2017-Sep-24 04:00N 23°01' W 136°26'1 0.6 1017.0 23.9
2017-Sep-24 03:00N 23°00' W 136°26'2 2.0 1016.8 23.9
2017-Sep-24 02:00N 23°01' W 136°25'0 0.0 1016.6 24.0
2017-Sep-24 01:00N 23°01' W 136°25'1 1.1 1016.4 24.0
2017-Sep-24 00:00N 23°01' W 136°23'0 0.0 1016.5 24.0
2017-Sep-23 23:00N 23°01' W 136°23'3 2.8 1016.7 24.0
2017-Sep-23 22:00N 23°01' W 136°20'2 0.6 1017.2 24.0
2017-Sep-23 19:00N 23°01' W 136°19'1 0.6 1018.2 23.9
2017-Sep-23 18:00N 23°01' W 136°19'3 1.4 1018.2 23.9
2017-Sep-23 16:00N 23°01' W 136°16'3 2.8 1017.1 23.9
2017-Sep-23 15:00N 23°01' W 136°13'0 0.0 1017.0 23.9
2017-Sep-23 14:00N 23°01' W 136°13'0 0.0 1016.8 23.9
2017-Sep-23 13:00N 23°01' W 136°13'0 0.0 1016.3 23.9
2017-Sep-23 12:00N 23°01' W 136°13'5 4.8 1016.2 23.9
2017-Sep-23 11:00N 23°03' W 136°08'0 0.0 1016.6 23.9
2017-Sep-23 07:00N 23°03' W 136°08'2 1.8 1017.8 23.9
2017-Sep-23 06:00N 23°04' W 136°07'1 0.8 1017.6 23.9
2017-Sep-23 05:00N 23°04' W 136°06'1 0.8 1017.1 23.9
2017-Sep-23 04:00N 23°05' W 136°05'1 1.3 1016.6 24.0
2017-Sep-23 03:00N 23°05' W 136°04'1 0.6 1016.1 24.0
2017-Sep-23 02:00N 23°05' W 136°04'1 1.1 1016.0 24.0
2017-Sep-23 01:00N 23°05' W 136°05'2 2.3 1016.1 24.1
2017-Sep-23 00:00N 23°06' W 136°02'0 0.0 1016.1 24.1
2017-Sep-22 23:00N 23°06' W 136°02'3 0.7 1016.5 24.1
2017-Sep-22 19:00N 23°07' W 135°59'2 1.7 1018.3 23.9
2017-Sep-22 18:00N 23°07' W 135°58'0 0.0 1018.2 23.9
2017-Sep-22 17:00N 23°07' W 135°58'1 0.3 1017.7 23.9
2017-Sep-22 15:00N 23°07' W 135°57'1 0.6 1017.0 23.9
2017-Sep-22 13:00N 23°07' W 135°56'5 5.1 1016.6 23.9
2017-Sep-22 12:00N 23°08' W 135°50'0 0.0 1016.8 23.9
2017-Sep-22 07:00N 23°08' W 135°50'2 1.8 1017.9 23.9
2017-Sep-22 06:00N 23°09' W 135°49'0 0.0 1017.7 23.9
2017-Sep-22 05:00N 23°09' W 135°49'0 0.0 1017.2 23.9
2017-Sep-22 04:00N 23°09' W 135°49'2 1.7 1016.6 23.9
2017-Sep-22 03:00N 23°09' W 135°47'2 1.9 1016.2 24.0
2017-Sep-22 02:00N 23°11' W 135°46'0 0.0 1016.0 24.0
2017-Sep-22 01:00N 23°11' W 135°46'1 1.3 1016.0 24.0
2017-Sep-22 00:00N 23°11' W 135°45'3 3.3 1016.1 24.0
2017-Sep-21 23:00N 23°13' W 135°42'1 0.3 1016.4 24.0
2017-Sep-21 19:00N 23°14' W 135°43'2 2.2 1018.6 23.9
2017-Sep-21 18:00N 23°14' W 135°41'0 0.0 1018.8 23.9
2017-Sep-21 17:00N 23°14' W 135°41'0 0.0 1018.4 23.9
2017-Sep-21 16:00N 23°14' W 135°41'1 1.3 1017.8 23.9
2017-Sep-21 15:00N 23°14' W 135°40'0 0.0 1017.3 23.9
2017-Sep-21 14:00N 23°14' W 135°40'2 1.6 1016.8 23.9
2017-Sep-21 13:00N 23°16' W 135°38'3 2.5 1016.7 23.9
2017-Sep-21 12:00N 23°17' W 135°36'0 0.0 1016.7 23.9
2017-Sep-21 07:00N 23°17' W 135°36'1 1.3 1018.2 23.9
2017-Sep-21 06:00N 23°17' W 135°35'0 0.0 1017.9 23.9
2017-Sep-21 05:00N 23°17' W 135°35'1 1.3 1017.4 23.9
2017-Sep-21 04:00N 23°18' W 135°34'1 0.6 1016.7 23.9
2017-Sep-21 03:00N 23°18' W 135°34'1 1.1 1016.1 23.9
2017-Sep-21 02:00N 23°18' W 135°33'1 0.8 1016.2 23.9
2017-Sep-21 01:00N 23°19' W 135°32'1 0.8
2017-Sep-21 00:00N 23°19' W 135°32'0 0.0 1016.1 24.0
2017-Sep-20 23:00N 23°19' W 135°32'2 0.6 1016.5 24.0
2017-Sep-20 19:00N 23°21' W 135°30'1 1.1 1018.6 23.9
2017-Sep-20 18:00N 23°21' W 135°29'1 0.6 1018.5 23.9
2017-Sep-20 17:00N 23°22' W 135°29'0 0.0 1018.3 23.8
2017-Sep-20 16:00N 23°22' W 135°29'1 1.3 1018.0 23.8
2017-Sep-20 15:00N 23°22' W 135°28'0 0.0 1017.4 23.8
2017-Sep-20 14:00N 23°22' W 135°28'1 0.8 1017.0 23.8
2017-Sep-20 13:00N 23°23' W 135°27'2 2.1 1016.7 23.8
2017-Sep-20 12:00N 23°25' W 135°26'1 0.2 1016.8 23.8
2017-Sep-20 06:00N 23°25' W 135°25'1 0.8 1018.4 23.9
2017-Sep-20 05:00N 23°25' W 135°24'1 0.8 1018.3 24.0
2017-Sep-20 04:00N 23°26' W 135°23'1 0.8 1017.5 24.0
2017-Sep-20 03:00N 23°26' W 135°23'1 0.8 1016.9 24.0
2017-Sep-20 02:00N 23°26' W 135°22'0 0.0 1016.8 24.0
2017-Sep-20 01:00N 23°26' W 135°22'1 1.3 1016.5 24.0
2017-Sep-20 00:00N 23°27' W 135°22'0 0.0 1016.7 24.0
2017-Sep-19 23:00N 23°27' W 135°22'3 0.9 1016.8 24.0
2017-Sep-19 20:00N 23°29' W 135°19'0 0.0 1018.6 24.0
2017-Sep-19 19:00N 23°29' W 135°19'2 1.1 1018.7 24.0
2017-Sep-19 17:00N 23°31' W 135°18'1 0.4 1018.3 23.9
2017-Sep-19 15:00N 23°31' W 135°17'1 1.3 1017.5 24.0
2017-Sep-19 14:00N 23°32' W 135°16'1 0.8 1017.1 24.0
2017-Sep-19 13:00N 23°32' W 135°17'3 2.8 1016.9 24.0
2017-Sep-19 12:00N 23°34' W 135°14'0 0.0 1017.0 24.0
2017-Sep-19 07:00N 23°34' W 135°14'1 0.8 1018.7 24.0
2017-Sep-19 06:00N 23°35' W 135°14'1 0.5 1018.6 24.0
2017-Sep-19 05:00N 23°35' W 135°13'0 0.0 1018.0 24.0
2017-Sep-19 04:00N 23°35' W 135°13'1 1.3 1017.5 24.0
2017-Sep-19 03:00N 23°35' W 135°12'4 4.1 1016.9 23.9
2017-Sep-19 02:00N 23°38' W 135°08'0 0.0 1016.6 23.9
2017-Sep-19 00:00N 23°38' W 135°08'0 0.0 1016.4 23.9
2017-Sep-18 23:00N 23°38' W 135°08'0 0.0 1016.6 23.9
2017-Sep-18 22:00N 23°38' W 135°08'1 0.3 1017.1 23.9
2017-Sep-18 19:00N 23°38' W 135°08'1 1.1 1018.4 23.9
2017-Sep-18 18:00N 23°38' W 135°07'1 0.6 1018.1 23.9
2017-Sep-18 17:00N 23°39' W 135°07'0 0.0 1017.8 23.9
2017-Sep-18 16:00N 23°39' W 135°07'2 1.8 1017.3 23.9
2017-Sep-18 15:00N 23°40' W 135°05'0 0.0 1017.0 23.9
2017-Sep-18 14:00N 23°40' W 135°05'1 1.2 1016.4 23.9
2017-Sep-18 13:00N 23°41' W 135°05'3 2.5 1016.0 23.9
2017-Sep-18 12:00N 23°42' W 135°02'0 0.0 1016.0 23.9
2017-Sep-18 07:00N 23°42' W 135°02'1 0.5 1018.2 23.9
2017-Sep-18 06:00N 23°42' W 135°02'0 0.0 1018.1 23.9
2017-Sep-18 05:00N 23°42' W 135°02'1 1.1 1017.6 24.0
2017-Sep-18 04:00N 23°42' W 135°01'2 2.2 1017.2 24.0
2017-Sep-18 03:00N 23°42' W 134°58'1 1.3 1016.7 24.0
2017-Sep-18 02:00N 23°41' W 134°59'1 0.6 1016.6 24.0
2017-Sep-18 00:00N 23°42' W 134°58'3 1.5 1016.4 24.0
2017-Sep-17 22:00N 23°43' W 134°55'0 0.0 1017.4 24.0
2017-Sep-17 20:00N 23°43' W 134°55'1 0.5 1018.5 23.9
2017-Sep-17 19:00N 23°43' W 134°55'1 0.8 1018.6 23.9
2017-Sep-17 18:00N 23°44' W 134°54'2 2.1 1018.5 23.9
2017-Sep-17 17:00N 23°46' W 134°53'0 0.0 1018.2 23.9
2017-Sep-17 16:00N 23°46' W 134°53'0 0.0 1017.7 23.9
2017-Sep-17 14:00N 23°46' W 134°53'4 4.1 1017.0 23.9
2017-Sep-17 13:00N 23°49' W 134°50'3 2.8 1016.7 23.9
2017-Sep-17 12:00N 23°47' W 134°52'3 0.6 1016.9 23.9
2017-Sep-17 07:00N 23°49' W 134°50'1 1.3 1018.9 23.9
2017-Sep-17 06:00N 23°49' W 134°49'0 0.0 1018.6 23.9
2017-Sep-17 05:00N 23°49' W 134°49'1 1.3 1018.0 23.9
2017-Sep-17 04:00N 23°50' W 134°47'1 0.8 1017.4 23.9
2017-Sep-17 03:00N 23°49' W 134°47'1 1.3 1016.8 23.9
2017-Sep-17 02:00N 23°50' W 134°46'1 0.8 1016.5 23.9
2017-Sep-17 01:00N 23°50' W 134°46'0 0.0 1016.4 24.0
2017-Sep-17 00:00N 23°50' W 134°46'1 0.4 1016.6 24.0
2017-Sep-16 22:00N 23°50' W 134°45'3 0.9 1017.5 23.9
2017-Sep-16 19:00N 23°50' W 134°42'   1019.2 23.8
Track history (hours):
 
Tides and Currents Weather Stations Pressure Air Temp Water Temp Dewpoint Dewpoint Depression Visibility Wind Speed Wind Dir Waves Ship Positions

Drifting buoy 46770

Last reported at 2017-Sep-26 19:00 UTC. Time now 2017-Sep-26 21:46 UTC.
Position N 22°59' W 137°19'.

Barometer 1017.5 mb
Water temperature 24.2 ° C

Date/timePositionNaut miles runAvg speedWind from/ knotsBaromVisibWave heightAir tempDewpointWater temp
2017-Sep-26 19:00N 22°59' W 137°19'1 0.6 1017.5 24.2
2017-Sep-26 18:00N 22°59' W 137°19'2 2.2 1017.5 24.2
2017-Sep-26 17:00N 22°59' W 137°16'0 0.0 1017.3 24.2
2017-Sep-26 16:00N 22°59' W 137°16'0 0.0 1016.8 24.1
2017-Sep-26 15:00N 22°59' W 137°16'1 1.1 1016.3 24.1
2017-Sep-26 14:00N 22°59' W 137°15'0 0.0 1016.1 24.1
2017-Sep-26 13:00N 22°59' W 137°15'1 1.3 1016.0 24.1
2017-Sep-26 12:00N 22°59' W 137°14'3 0.6 1016.1 24.1
2017-Sep-26 07:00N 22°58' W 137°11'1 1.1 1017.6 24.1
2017-Sep-26 06:00N 22°58' W 137°10'1 0.6 1017.3 24.1
2017-Sep-26 05:00N 22°58' W 137°09'1 1.1 1016.9 24.1
2017-Sep-26 04:00N 22°58' W 137°08'2 1.7 1016.4 24.1
2017-Sep-26 03:00N 22°58' W 137°06'0 0.0 1016.0 24.0
2017-Sep-26 02:00N 22°58' W 137°06'1 1.3 1015.8 24.0
2017-Sep-26 01:00N 22°59' W 137°05'0 0.0 1015.7 24.1
2017-Sep-26 00:00N 22°59' W 137°05'4 1.8 1015.7 24.1
2017-Sep-25 22:00N 23°00' W 137°01'1 0.2 1016.7 24.0
2017-Sep-25 19:00N 22°59' W 137°01'2 2.2 1017.9 23.9
2017-Sep-25 18:00N 22°59' W 136°59'0 0.0 1018.0 23.8
2017-Sep-25 17:00N 22°59' W 136°59'0 0.0 1017.7 23.8
2017-Sep-25 15:00N 22°59' W 136°59'2 1.7 1016.7 23.8
2017-Sep-25 14:00N 22°59' W 136°57'4 3.9 1016.5 23.8
2017-Sep-25 13:00N 22°59' W 136°53'3 2.5 1016.2 23.8
2017-Sep-25 12:00N 23°00' W 136°55'3 0.5 1016.5 23.8
2017-Sep-25 07:00N 22°59' W 136°53'1 1.1 1018.5 23.9
2017-Sep-25 06:00N 22°59' W 136°52'1 0.6 1018.3 23.9
2017-Sep-25 04:00N 22°59' W 136°50'2 1.7 1017.2 23.9
2017-Sep-25 03:00N 22°59' W 136°49'1 0.6 1016.6 23.9
2017-Sep-25 01:00N 22°59' W 136°47'0 0.0 1016.1 23.9
2017-Sep-25 00:00N 22°59' W 136°47'2 1.7 1016.2 23.9
2017-Sep-24 23:00N 22°59' W 136°46'3 3.4 1016.5 23.9
2017-Sep-24 22:00N 22°59' W 136°42'0 0.0 1017.0 23.9
2017-Sep-24 20:00N 22°59' W 136°42'1 1.3 1018.1 23.9
2017-Sep-24 19:00N 22°59' W 136°41'2 1.8 1018.3 23.8
2017-Sep-24 18:00N 22°59' W 136°39'1 0.6 1018.3 23.8
2017-Sep-24 17:00N 23°00' W 136°39'1 0.6 1018.0 23.8
2017-Sep-24 16:00N 23°00' W 136°38'2 1.8 1017.4 23.8
2017-Sep-24 15:00N 23°01' W 136°37'0 0.0 1017.1 23.8
2017-Sep-24 14:00N 23°01' W 136°37'0 0.0 1016.8 23.8
2017-Sep-24 13:00N 23°01' W 136°37'5 2.5 1016.6 23.8
2017-Sep-24 11:00N 23°00' W 136°31'1 0.3 1016.7 23.8
2017-Sep-24 07:00N 23°00' W 136°30'1 1.1 1018.0 23.9
2017-Sep-24 06:00N 23°00' W 136°29'1 1.3 1017.9 23.9
2017-Sep-24 05:00N 23°01' W 136°28'1 1.1 1017.5 23.9
2017-Sep-24 04:00N 23°01' W 136°26'1 0.6 1017.0 23.9
2017-Sep-24 03:00N 23°00' W 136°26'2 2.0 1016.8 23.9
2017-Sep-24 02:00N 23°01' W 136°25'0 0.0 1016.6 24.0
2017-Sep-24 01:00N 23°01' W 136°25'1 1.1 1016.4 24.0
2017-Sep-24 00:00N 23°01' W 136°23'0 0.0 1016.5 24.0
2017-Sep-23 23:00N 23°01' W 136°23'3 2.8 1016.7 24.0
2017-Sep-23 22:00N 23°01' W 136°20'2 0.6 1017.2 24.0
2017-Sep-23 19:00N 23°01' W 136°19'1 0.6 1018.2 23.9
2017-Sep-23 18:00N 23°01' W 136°19'3 1.4 1018.2 23.9
2017-Sep-23 16:00N 23°01' W 136°16'3 2.8 1017.1 23.9
2017-Sep-23 15:00N 23°01' W 136°13'0 0.0 1017.0 23.9
2017-Sep-23 14:00N 23°01' W 136°13'0 0.0 1016.8 23.9
2017-Sep-23 13:00N 23°01' W 136°13'0 0.0 1016.3 23.9
2017-Sep-23 12:00N 23°01' W 136°13'5 4.8 1016.2 23.9
2017-Sep-23 11:00N 23°03' W 136°08'0 0.0 1016.6 23.9
2017-Sep-23 07:00N 23°03' W 136°08'2 1.8 1017.8 23.9
2017-Sep-23 06:00N 23°04' W 136°07'1 0.8 1017.6 23.9
2017-Sep-23 05:00N 23°04' W 136°06'1 0.8 1017.1 23.9
2017-Sep-23 04:00N 23°05' W 136°05'1 1.3 1016.6 24.0
2017-Sep-23 03:00N 23°05' W 136°04'1 0.6 1016.1 24.0
2017-Sep-23 02:00N 23°05' W 136°04'1 1.1 1016.0 24.0
2017-Sep-23 01:00N 23°05' W 136°05'2 2.3 1016.1 24.1
2017-Sep-23 00:00N 23°06' W 136°02'0 0.0 1016.1 24.1
2017-Sep-22 23:00N 23°06' W 136°02'3 0.7 1016.5 24.1
2017-Sep-22 19:00N 23°07' W 135°59'2 1.7 1018.3 23.9
2017-Sep-22 18:00N 23°07' W 135°58'0 0.0 1018.2 23.9
2017-Sep-22 17:00N 23°07' W 135°58'1 0.3 1017.7 23.9
2017-Sep-22 15:00N 23°07' W 135°57'1 0.6 1017.0 23.9
2017-Sep-22 13:00N 23°07' W 135°56'5 5.1 1016.6 23.9
2017-Sep-22 12:00N 23°08' W 135°50'0 0.0 1016.8 23.9
2017-Sep-22 07:00N 23°08' W 135°50'2 1.8 1017.9 23.9
2017-Sep-22 06:00N 23°09' W 135°49'0 0.0 1017.7 23.9
2017-Sep-22 05:00N 23°09' W 135°49'0 0.0 1017.2 23.9
2017-Sep-22 04:00N 23°09' W 135°49'2 1.7 1016.6 23.9
2017-Sep-22 03:00N 23°09' W 135°47'2 1.9 1016.2 24.0
2017-Sep-22 02:00N 23°11' W 135°46'0 0.0 1016.0 24.0
2017-Sep-22 01:00N 23°11' W 135°46'1 1.3 1016.0 24.0
2017-Sep-22 00:00N 23°11' W 135°45'3 3.3 1016.1 24.0
2017-Sep-21 23:00N 23°13' W 135°42'1 0.3 1016.4 24.0
2017-Sep-21 19:00N 23°14' W 135°43'2 2.2 1018.6 23.9
2017-Sep-21 18:00N 23°14' W 135°41'0 0.0 1018.8 23.9
2017-Sep-21 17:00N 23°14' W 135°41'0 0.0 1018.4 23.9
2017-Sep-21 16:00N 23°14' W 135°41'1 1.3 1017.8 23.9
2017-Sep-21 15:00N 23°14' W 135°40'0 0.0 1017.3 23.9
2017-Sep-21 14:00N 23°14' W 135°40'2 1.6 1016.8 23.9
2017-Sep-21 13:00N 23°16' W 135°38'3 2.5 1016.7 23.9
2017-Sep-21 12:00N 23°17' W 135°36'0 0.0 1016.7 23.9
2017-Sep-21 07:00N 23°17' W 135°36'1 1.3 1018.2 23.9
2017-Sep-21 06:00N 23°17' W 135°35'0 0.0 1017.9 23.9
2017-Sep-21 05:00N 23°17' W 135°35'1 1.3 1017.4 23.9
2017-Sep-21 04:00N 23°18' W 135°34'1 0.6 1016.7 23.9
2017-Sep-21 03:00N 23°18' W 135°34'1 1.1 1016.1 23.9
2017-Sep-21 02:00N 23°18' W 135°33'1 0.8 1016.2 23.9
2017-Sep-21 01:00N 23°19' W 135°32'1 0.8
2017-Sep-21 00:00N 23°19' W 135°32'0 0.0 1016.1 24.0
2017-Sep-20 23:00N 23°19' W 135°32'2 0.6 1016.5 24.0
2017-Sep-20 19:00N 23°21' W 135°30'1 1.1 1018.6 23.9
2017-Sep-20 18:00N 23°21' W 135°29'1 0.6 1018.5 23.9
2017-Sep-20 17:00N 23°22' W 135°29'0 0.0 1018.3 23.8
2017-Sep-20 16:00N 23°22' W 135°29'1 1.3 1018.0 23.8
2017-Sep-20 15:00N 23°22' W 135°28'0 0.0 1017.4 23.8
2017-Sep-20 14:00N 23°22' W 135°28'1 0.8 1017.0 23.8
2017-Sep-20 13:00N 23°23' W 135°27'2 2.1 1016.7 23.8
2017-Sep-20 12:00N 23°25' W 135°26'1 0.2 1016.8 23.8
2017-Sep-20 06:00N 23°25' W 135°25'1 0.8 1018.4 23.9
2017-Sep-20 05:00N 23°25' W 135°24'1 0.8 1018.3 24.0
2017-Sep-20 04:00N 23°26' W 135°23'1 0.8 1017.5 24.0
2017-Sep-20 03:00N 23°26' W 135°23'1 0.8 1016.9 24.0
2017-Sep-20 02:00N 23°26' W 135°22'0 0.0 1016.8 24.0
2017-Sep-20 01:00N 23°26' W 135°22'1 1.3 1016.5 24.0
2017-Sep-20 00:00N 23°27' W 135°22'0 0.0 1016.7 24.0
2017-Sep-19 23:00N 23°27' W 135°22'3 0.9 1016.8 24.0
2017-Sep-19 20:00N 23°29' W 135°19'0 0.0 1018.6 24.0
2017-Sep-19 19:00N 23°29' W 135°19'2 1.1 1018.7 24.0
2017-Sep-19 17:00N 23°31' W 135°18'1 0.4 1018.3 23.9
2017-Sep-19 15:00N 23°31' W 135°17'1 1.3 1017.5 24.0
2017-Sep-19 14:00N 23°32' W 135°16'1 0.8 1017.1 24.0
2017-Sep-19 13:00N 23°32' W 135°17'3 2.8 1016.9 24.0
2017-Sep-19 12:00N 23°34' W 135°14'0 0.0 1017.0 24.0
2017-Sep-19 07:00N 23°34' W 135°14'1 0.8 1018.7 24.0
2017-Sep-19 06:00N 23°35' W 135°14'1 0.5 1018.6 24.0
2017-Sep-19 05:00N 23°35' W 135°13'0 0.0 1018.0 24.0
2017-Sep-19 04:00N 23°35' W 135°13'1 1.3 1017.5 24.0
2017-Sep-19 03:00N 23°35' W 135°12'4 4.1 1016.9 23.9
2017-Sep-19 02:00N 23°38' W 135°08'0 0.0 1016.6 23.9
2017-Sep-19 00:00N 23°38' W 135°08'0 0.0 1016.4 23.9
2017-Sep-18 23:00N 23°38' W 135°08'0 0.0 1016.6 23.9
2017-Sep-18 22:00N 23°38' W 135°08'1 0.3 1017.1 23.9
2017-Sep-18 19:00N 23°38' W 135°08'1 1.1 1018.4 23.9
2017-Sep-18 18:00N 23°38' W 135°07'1 0.6 1018.1 23.9
2017-Sep-18 17:00N 23°39' W 135°07'0 0.0 1017.8 23.9
2017-Sep-18 16:00N 23°39' W 135°07'2 1.8 1017.3 23.9
2017-Sep-18 15:00N 23°40' W 135°05'0 0.0 1017.0 23.9
2017-Sep-18 14:00N 23°40' W 135°05'1 1.2 1016.4 23.9
2017-Sep-18 13:00N 23°41' W 135°05'3 2.5 1016.0 23.9
2017-Sep-18 12:00N 23°42' W 135°02'0 0.0 1016.0 23.9
2017-Sep-18 07:00N 23°42' W 135°02'1 0.5 1018.2 23.9
2017-Sep-18 06:00N 23°42' W 135°02'0 0.0 1018.1 23.9
2017-Sep-18 05:00N 23°42' W 135°02'1 1.1 1017.6 24.0
2017-Sep-18 04:00N 23°42' W 135°01'2 2.2 1017.2 24.0
2017-Sep-18 03:00N 23°42' W 134°58'1 1.3 1016.7 24.0
2017-Sep-18 02:00N 23°41' W 134°59'1 0.6 1016.6 24.0
2017-Sep-18 00:00N 23°42' W 134°58'3 1.5 1016.4 24.0
2017-Sep-17 22:00N 23°43' W 134°55'0 0.0 1017.4 24.0
2017-Sep-17 20:00N 23°43' W 134°55'1 0.5 1018.5 23.9
2017-Sep-17 19:00N 23°43' W 134°55'1 0.8 1018.6 23.9
2017-Sep-17 18:00N 23°44' W 134°54'2 2.1 1018.5 23.9
2017-Sep-17 17:00N 23°46' W 134°53'0 0.0 1018.2 23.9
2017-Sep-17 16:00N 23°46' W 134°53'0 0.0 1017.7 23.9
2017-Sep-17 14:00N 23°46' W 134°53'4 4.1 1017.0 23.9
2017-Sep-17 13:00N 23°49' W 134°50'3 2.8 1016.7 23.9
2017-Sep-17 12:00N 23°47' W 134°52'3 0.6 1016.9 23.9
2017-Sep-17 07:00N 23°49' W 134°50'1 1.3 1018.9 23.9
2017-Sep-17 06:00N 23°49' W 134°49'0 0.0 1018.6 23.9
2017-Sep-17 05:00N 23°49' W 134°49'1 1.3 1018.0 23.9
2017-Sep-17 04:00N 23°50' W 134°47'1 0.8 1017.4 23.9
2017-Sep-17 03:00N 23°49' W 134°47'1 1.3 1016.8 23.9
2017-Sep-17 02:00N 23°50' W 134°46'1 0.8 1016.5 23.9
2017-Sep-17 01:00N 23°50' W 134°46'0 0.0 1016.4 24.0
2017-Sep-17 00:00N 23°50' W 134°46'1 0.4 1016.6 24.0
2017-Sep-16 22:00N 23°50' W 134°45'3 0.9 1017.5 23.9
2017-Sep-16 19:00N 23°50' W 134°42'   1019.2 23.8

Dump ship's entire track history